createdAt,value
2017-12-13T00:01:11.116Z,9.60
2017-12-13T00:03:39.038Z,10.30
2017-12-13T00:06:06.491Z,10.20
2017-12-13T00:08:33.953Z,10.57
2017-12-13T00:11:01.811Z,9.47
2017-12-13T00:13:29.269Z,10.70
2017-12-13T00:15:56.726Z,11.20
2017-12-13T00:18:24.540Z,12.10
2017-12-13T00:20:52.000Z,13.23
2017-12-13T00:23:20.104Z,13.07
2017-12-13T00:25:48.109Z,12.97
2017-12-13T00:28:15.565Z,13.30
2017-12-13T00:30:43.024Z,11.47
2017-12-13T00:33:11.700Z,13.70
2017-12-13T00:35:39.166Z,10.97
2017-12-13T00:38:06.635Z,12.30
2017-12-13T00:40:34.383Z,12.50
2017-12-13T00:43:01.842Z,10.13
2017-12-13T00:45:29.295Z,10.80
2017-12-13T00:47:57.081Z,11.37
2017-12-13T00:50:24.539Z,11.13
2017-12-13T00:52:52.004Z,9.63
2017-12-13T00:55:19.778Z,9.90
2017-12-13T00:57:47.226Z,9.07
2017-12-13T01:00:14.705Z,11.60
2017-12-13T01:02:42.388Z,10.30
2017-12-13T01:05:09.917Z,10.00
2017-12-13T01:07:37.397Z,10.50
2017-12-13T01:10:08.213Z,10.97
2017-12-13T01:12:35.677Z,11.27
2017-12-13T01:15:03.128Z,11.47
2017-12-13T01:17:30.893Z,11.17
2017-12-13T01:19:58.352Z,12.67
2017-12-13T01:22:25.802Z,12.00
2017-12-13T01:24:55.727Z,11.40
2017-12-13T01:27:23.185Z,10.97
2017-12-13T01:29:50.640Z,12.07
2017-12-13T01:32:18.721Z,12.70
2017-12-13T01:34:46.177Z,13.17
2017-12-13T01:37:13.631Z,13.83
2017-12-13T01:39:41.346Z,11.70
2017-12-13T01:42:08.799Z,11.87
2017-12-13T01:44:36.253Z,14.00
2017-12-13T01:47:03.988Z,12.80
2017-12-13T01:49:31.449Z,15.77
2017-12-13T01:51:58.902Z,14.80
2017-12-13T01:54:26.785Z,14.27
2017-12-13T01:56:54.240Z,17.47
2017-12-13T01:59:21.685Z,17.30
2017-12-13T02:01:49.782Z,17.00
2017-12-13T02:04:17.246Z,17.47
2017-12-13T02:06:44.737Z,19.40
2017-12-13T02:09:12.400Z,20.37
2017-12-13T02:11:39.860Z,18.83
2017-12-13T02:14:07.327Z,17.37
2017-12-13T02:16:35.148Z,19.20
2017-12-13T02:19:02.608Z,18.37
2017-12-13T02:21:30.074Z,19.53
2017-12-13T02:23:57.840Z,18.03
2017-12-13T02:26:25.997Z,19.23
2017-12-13T02:28:53.490Z,18.40
2017-12-13T02:31:21.448Z,19.93
2017-12-13T02:33:48.906Z,22.00
2017-12-13T02:36:16.357Z,19.90
2017-12-13T02:38:44.185Z,20.90
2017-12-13T02:41:11.642Z,18.37
2017-12-13T02:43:39.109Z,19.10
2017-12-13T02:46:06.829Z,19.80
2017-12-13T02:48:34.289Z,19.90
2017-12-13T02:51:01.754Z,19.73
2017-12-13T02:53:29.818Z,18.63
2017-12-13T02:55:57.272Z,19.93
2017-12-13T02:58:24.723Z,18.47
2017-12-13T03:00:52.553Z,20.07
2017-12-13T03:03:20.015Z,19.90
2017-12-13T03:05:47.471Z,18.47
2017-12-13T03:08:15.188Z,19.67
2017-12-13T03:10:42.644Z,21.23
2017-12-13T03:13:10.814Z,21.77
2017-12-13T03:15:38.801Z,22.17
2017-12-13T03:18:06.272Z,22.53
2017-12-13T03:20:33.749Z,24.67
2017-12-13T03:23:01.490Z,21.37
2017-12-13T03:25:28.945Z,24.10
2017-12-13T03:34:40.385Z,21.20
2017-12-13T03:37:07.841Z,25.33
2017-12-13T03:39:35.305Z,25.43
2017-12-13T03:42:03.068Z,25.23
2017-12-13T03:44:30.521Z,24.70
2017-12-13T03:46:57.973Z,23.27
2017-12-13T03:49:26.072Z,26.27
2017-12-13T03:51:53.532Z,26.10
2017-12-13T03:54:20.991Z,25.33
2017-12-13T03:56:49.055Z,24.80
2017-12-13T03:59:16.516Z,24.47
2017-12-13T04:01:43.986Z,25.43
2017-12-13T04:04:11.566Z,25.87
2017-12-13T04:06:39.019Z,26.57
2017-12-13T04:09:06.472Z,24.50
2017-12-13T04:11:34.443Z,26.30
2017-12-13T04:14:01.894Z,25.47
2017-12-13T04:16:29.365Z,24.83
2017-12-13T04:18:57.126Z,25.30
2017-12-13T04:21:24.598Z,24.40
2017-12-13T04:23:52.051Z,26.93
2017-12-13T04:26:19.773Z,26.70
2017-12-13T04:28:48.542Z,31.03
2017-12-13T04:31:16.003Z,29.03
2017-12-13T04:33:43.975Z,30.57
2017-12-13T04:36:11.448Z,35.07
2017-12-13T04:38:38.905Z,43.97
2017-12-13T04:41:06.715Z,38.33
2017-12-13T04:43:34.175Z,33.90
2017-12-13T04:46:01.628Z,32.50
2017-12-13T04:48:29.711Z,32.50
2017-12-13T04:50:57.172Z,32.43
2017-12-13T04:53:24.634Z,36.80
2017-12-13T04:55:52.300Z,37.37
2017-12-13T04:58:19.761Z,34.47
2017-12-13T05:00:47.216Z,40.50
2017-12-13T05:03:15.090Z,49.27
2017-12-13T05:05:42.552Z,59.27
2017-12-13T05:08:10.009Z,47.50
2017-12-13T05:10:39.665Z,45.43
2017-12-13T05:13:07.450Z,55.70
2017-12-13T05:15:34.908Z,52.87
2017-12-13T05:18:02.677Z,53.27
2017-12-13T05:20:30.189Z,55.97
2017-12-13T05:22:57.640Z,55.00
2017-12-13T05:25:25.684Z,47.17
2017-12-13T05:27:53.146Z,53.77
2017-12-13T05:30:20.600Z,50.23
2017-12-13T05:32:48.349Z,50.40
2017-12-13T05:35:15.809Z,40.00
2017-12-13T05:37:43.271Z,47.67
2017-12-13T05:40:11.032Z,53.47
2017-12-13T05:42:38.490Z,53.13
2017-12-13T05:45:05.947Z,46.10
2017-12-13T05:47:33.731Z,49.40
2017-12-13T05:50:01.197Z,46.90
2017-12-13T05:52:28.657Z,45.70
2017-12-13T05:54:56.420Z,45.97
2017-12-13T05:57:23.882Z,47.77
2017-12-13T05:59:51.346Z,52.40
2017-12-13T06:02:19.013Z,47.40
2017-12-13T06:04:47.150Z,44.40
2017-12-13T06:07:14.623Z,52.50
2017-12-13T06:09:42.508Z,45.70
2017-12-13T06:12:10.561Z,45.38
2017-12-13T06:14:38.016Z,52.37
2017-12-13T06:17:06.130Z,53.40
2017-12-13T06:19:33.576Z,48.20
2017-12-13T06:22:01.029Z,47.77
2017-12-13T06:24:29.008Z,45.97
2017-12-13T06:26:56.470Z,49.20
2017-12-13T06:29:23.936Z,43.20
2017-12-13T06:31:51.999Z,42.10
2017-12-13T06:34:19.462Z,32.77
2017-12-13T06:36:46.921Z,38.50
2017-12-13T06:39:14.691Z,34.47
2017-12-13T06:41:42.146Z,37.00
2017-12-13T06:44:09.599Z,33.70
2017-12-13T06:46:37.377Z,36.47
2017-12-13T06:49:04.826Z,37.90
2017-12-13T06:51:32.284Z,36.97
2017-12-13T06:54:00.370Z,36.37
2017-12-13T06:56:27.854Z,42.90
2017-12-13T06:58:55.327Z,41.20
2017-12-13T07:01:23.374Z,41.13
2017-12-13T07:03:50.828Z,40.90
2017-12-13T07:06:18.298Z,39.10
2017-12-13T07:08:46.055Z,41.20
2017-12-13T07:11:13.541Z,41.50
2017-12-13T07:13:41.664Z,43.97
2017-12-13T07:16:09.621Z,43.50
2017-12-13T07:18:37.090Z,39.03
2017-12-13T07:21:04.553Z,39.37
2017-12-13T07:23:32.392Z,39.90
2017-12-13T07:25:59.872Z,37.77
2017-12-13T07:28:27.340Z,45.63
2017-12-13T07:30:55.014Z,39.20
2017-12-13T07:33:22.482Z,40.57
2017-12-13T07:35:49.944Z,39.07
2017-12-13T07:38:18.332Z,39.87
2017-12-13T07:40:45.793Z,38.10
2017-12-13T07:43:13.249Z,37.63
2017-12-13T07:45:40.925Z,37.50
2017-12-13T07:48:08.428Z,38.07
2017-12-13T07:50:35.901Z,38.60
2017-12-13T07:53:03.704Z,40.17
2017-12-13T07:55:31.174Z,36.97
2017-12-13T07:57:58.636Z,36.90
2017-12-13T08:00:26.473Z,42.90
2017-12-13T08:02:53.931Z,45.93
2017-12-13T08:05:21.385Z,43.97
2017-12-13T08:07:49.245Z,43.43
2017-12-13T08:10:16.725Z,48.90
2017-12-13T08:12:44.187Z,52.10
2017-12-13T08:15:13.013Z,52.37
2017-12-13T08:17:40.470Z,49.97
2017-12-13T08:20:07.924Z,50.47
2017-12-13T08:22:35.737Z,50.27
2017-12-13T08:25:03.193Z,48.13
2017-12-13T08:27:30.645Z,43.00
2017-12-13T08:29:58.370Z,44.40
2017-12-13T08:32:25.835Z,44.10
2017-12-13T08:34:53.297Z,41.70
2017-12-13T08:37:21.061Z,39.20
2017-12-13T08:39:48.527Z,40.37
2017-12-13T08:42:15.985Z,35.93
2017-12-13T08:44:43.754Z,37.27
2017-12-13T08:47:11.211Z,38.50
2017-12-13T08:49:38.677Z,34.97
2017-12-13T08:52:06.436Z,34.10
2017-12-13T08:54:33.909Z,35.07
2017-12-13T08:57:01.373Z,35.77
2017-12-13T08:59:29.116Z,35.03
2017-12-13T09:01:56.573Z,33.40
2017-12-13T09:04:24.035Z,35.20
2017-12-13T09:06:51.812Z,32.67
2017-12-13T09:09:19.273Z,33.40
2017-12-13T09:11:46.725Z,31.37
2017-12-13T09:14:14.453Z,33.80
2017-12-13T09:16:43.556Z,32.83
2017-12-13T09:19:11.021Z,34.23
2017-12-13T09:21:39.018Z,31.73
2017-12-13T09:24:06.481Z,33.17
2017-12-13T09:26:33.944Z,31.80
2017-12-13T09:29:01.713Z,30.00
2017-12-13T09:31:29.461Z,30.77
2017-12-13T09:33:56.913Z,31.30
2017-12-13T09:36:24.718Z,29.70
2017-12-13T09:38:52.189Z,29.40
2017-12-13T09:41:19.645Z,24.00
2017-12-13T09:43:47.395Z,23.23
2017-12-13T09:46:14.852Z,21.43
2017-12-13T09:48:42.359Z,21.27
2017-12-13T09:51:10.358Z,22.20
2017-12-13T09:53:37.819Z,19.57
2017-12-13T09:56:05.283Z,23.40
2017-12-13T09:58:33.058Z,25.67
2017-12-13T10:01:00.504Z,22.47
2017-12-13T10:03:27.973Z,23.77
2017-12-13T10:05:55.682Z,19.47
2017-12-13T10:08:23.139Z,18.80
2017-12-13T10:10:50.604Z,17.77
2017-12-13T10:13:18.285Z,16.60
2017-12-13T10:15:45.745Z,17.00
2017-12-13T10:18:13.752Z,15.03
2017-12-13T10:20:41.440Z,14.40
2017-12-13T10:23:08.892Z,16.17
2017-12-13T10:32:20.025Z,15.00
2017-12-13T10:34:47.474Z,15.90
2017-12-13T10:37:14.921Z,15.00
2017-12-13T10:39:42.702Z,16.23
2017-12-13T10:42:10.149Z,14.50
2017-12-13T10:44:37.609Z,15.83
2017-12-13T10:47:05.397Z,15.70
2017-12-13T10:49:32.857Z,15.33
2017-12-13T10:52:00.305Z,11.77
2017-12-13T10:54:28.097Z,12.10
2017-12-13T10:56:55.560Z,13.33
2017-12-13T10:59:23.013Z,13.17
2017-12-13T11:01:50.656Z,11.40
2017-12-13T11:04:18.107Z,10.50
2017-12-13T11:06:45.552Z,11.67
2017-12-13T11:09:13.472Z,12.67
2017-12-13T11:11:40.926Z,10.67
2017-12-13T11:14:08.393Z,10.27
2017-12-13T11:16:36.446Z,10.53
2017-12-13T11:19:04.326Z,11.67
2017-12-13T11:21:31.761Z,9.57
2017-12-13T11:23:59.446Z,10.93
2017-12-13T11:26:26.895Z,9.90
2017-12-13T11:28:54.341Z,10.53
2017-12-13T11:31:22.035Z,9.50
2017-12-13T11:33:49.485Z,8.23
2017-12-13T11:36:16.940Z,10.00
2017-12-13T11:38:45.083Z,11.00
2017-12-13T11:41:12.533Z,11.57
2017-12-13T11:43:39.994Z,10.80
2017-12-13T11:46:07.823Z,10.67
2017-12-13T11:48:35.290Z,12.00
2017-12-13T11:51:02.742Z,10.37
2017-12-13T11:53:30.810Z,11.80
2017-12-13T11:55:58.269Z,13.40
2017-12-13T11:58:25.727Z,12.13
2017-12-13T12:00:53.812Z,12.37
2017-12-13T12:03:21.310Z,11.57
2017-12-13T12:05:49.511Z,11.20
2017-12-13T12:08:17.425Z,12.40
2017-12-13T12:10:44.881Z,11.27
2017-12-13T12:13:12.337Z,9.80
2017-12-13T12:15:40.104Z,9.07
2017-12-13T12:18:07.569Z,9.73
2017-12-13T12:20:35.406Z,10.30
2017-12-13T12:23:03.226Z,8.63
2017-12-13T12:25:30.682Z,8.70
2017-12-13T12:27:58.142Z,8.67
2017-12-13T12:30:26.086Z,9.03
2017-12-13T12:32:53.534Z,8.13
2017-12-13T12:35:20.982Z,7.53
2017-12-13T12:37:49.390Z,7.37
2017-12-13T12:40:16.844Z,7.50
2017-12-13T12:42:44.299Z,8.03
2017-12-13T12:45:11.952Z,7.33
2017-12-13T12:47:39.409Z,8.07
2017-12-13T12:50:06.857Z,7.20
2017-12-13T12:52:34.709Z,7.70
2017-12-13T12:55:02.163Z,6.23
2017-12-13T12:57:29.608Z,6.73
2017-12-13T12:59:57.449Z,7.07
2017-12-13T13:02:24.910Z,7.33
2017-12-13T13:04:52.358Z,6.80
2017-12-13T13:07:20.148Z,7.13
2017-12-13T13:09:47.696Z,6.23
2017-12-13T13:12:15.146Z,6.57
2017-12-13T13:14:42.821Z,6.47
2017-12-13T13:17:10.269Z,6.33
2017-12-13T13:19:37.716Z,7.27
2017-12-13T13:22:06.285Z,8.00
2017-12-13T13:24:33.833Z,6.87
2017-12-13T13:27:01.299Z,5.97
2017-12-13T13:29:29.166Z,8.13
2017-12-13T13:31:56.633Z,7.57
2017-12-13T13:34:24.086Z,6.63
2017-12-13T13:36:51.814Z,6.20
2017-12-13T13:39:19.268Z,5.53
2017-12-13T13:41:46.717Z,5.70
2017-12-13T13:44:14.494Z,5.97
2017-12-13T13:46:41.938Z,5.50
2017-12-13T13:49:09.393Z,4.90
2017-12-13T13:51:37.476Z,5.20
2017-12-13T13:54:04.923Z,5.53
2017-12-13T13:56:32.376Z,6.00
2017-12-13T13:58:59.951Z,4.17
2017-12-13T14:01:27.395Z,4.60
2017-12-13T14:03:54.846Z,4.70
2017-12-13T14:06:22.549Z,4.43
2017-12-13T14:08:50.006Z,4.07
2017-12-13T14:11:17.445Z,4.67
2017-12-13T14:13:45.233Z,4.40
2017-12-13T14:16:12.676Z,5.33
2017-12-13T14:18:40.126Z,5.40
2017-12-13T14:21:07.966Z,5.33
2017-12-13T14:23:35.445Z,4.90
2017-12-13T14:26:02.894Z,5.33
2017-12-13T14:28:30.605Z,5.43
2017-12-13T14:30:58.064Z,5.30
2017-12-13T14:33:25.515Z,5.23
2017-12-13T14:35:53.297Z,4.67
2017-12-13T14:38:20.735Z,4.10
2017-12-13T14:40:48.283Z,4.10
2017-12-13T14:43:15.982Z,4.30
2017-12-13T14:45:43.538Z,3.87
2017-12-13T14:48:10.985Z,3.83
2017-12-13T14:50:38.678Z,4.87
2017-12-13T14:53:06.125Z,4.00
2017-12-13T14:55:33.568Z,3.77
2017-12-13T14:58:01.358Z,4.00
2017-12-13T15:00:28.802Z,4.40
2017-12-13T15:02:56.241Z,3.60
2017-12-13T15:05:24.078Z,4.30
2017-12-13T15:07:51.513Z,3.37
2017-12-13T15:10:18.968Z,3.73
2017-12-13T15:12:47.041Z,3.10
2017-12-13T15:15:14.484Z,4.30
2017-12-13T15:17:41.933Z,3.30
2017-12-13T15:20:09.727Z,4.17
2017-12-13T15:22:37.174Z,4.53
2017-12-13T15:25:05.326Z,4.03
2017-12-13T15:27:33.161Z,4.27
2017-12-13T15:30:00.620Z,5.63
2017-12-13T15:32:28.061Z,4.50
2017-12-13T15:34:56.042Z,5.10
2017-12-13T15:37:23.488Z,5.70
2017-12-13T15:39:50.937Z,6.50
2017-12-13T15:42:18.568Z,6.40
2017-12-13T15:44:46.026Z,7.43
2017-12-13T15:47:13.476Z,7.70
2017-12-13T15:49:41.390Z,7.23
2017-12-13T15:52:10.348Z,6.07
2017-12-13T15:54:37.800Z,5.53
2017-12-13T15:57:05.491Z,7.00
2017-12-13T15:59:32.938Z,6.40
2017-12-13T16:02:00.393Z,6.47
2017-12-13T16:04:28.312Z,6.03
2017-12-13T16:06:55.754Z,6.87
2017-12-13T16:09:23.205Z,6.97
2017-12-13T16:11:50.992Z,6.97
2017-12-13T16:14:18.433Z,6.70
2017-12-13T16:16:45.876Z,6.50
2017-12-13T16:19:13.691Z,5.60
2017-12-13T16:21:41.142Z,6.80
2017-12-13T16:24:08.588Z,7.63
2017-12-13T16:26:38.017Z,8.40
2017-12-13T16:29:05.723Z,6.80
2017-12-13T16:31:33.180Z,7.30
2017-12-13T16:34:01.213Z,6.57
2017-12-13T16:36:28.649Z,6.33
2017-12-13T16:38:56.101Z,8.20
2017-12-13T16:41:23.897Z,8.70
2017-12-13T16:43:51.335Z,6.23
2017-12-13T16:46:18.780Z,6.97
2017-12-13T16:48:46.577Z,6.83
2017-12-13T16:51:14.022Z,7.10
2017-12-13T16:53:41.473Z,6.60
2017-12-13T16:56:09.265Z,6.10
2017-12-13T16:58:36.705Z,5.83
2017-12-13T17:01:04.206Z,6.20
2017-12-13T17:03:31.798Z,7.23
2017-12-13T17:05:59.258Z,6.70
2017-12-13T17:08:26.707Z,5.40
2017-12-13T17:10:54.638Z,5.27
2017-12-13T17:13:22.079Z,4.23
2017-12-13T17:15:49.530Z,4.70
2017-12-13T17:18:17.326Z,4.90
2017-12-13T17:20:44.773Z,5.40
2017-12-13T17:23:12.224Z,4.77
2017-12-13T17:25:39.990Z,5.97
2017-12-13T17:28:07.801Z,5.23
2017-12-13T17:30:35.258Z,10.50
2017-12-13T17:33:03.018Z,11.43
2017-12-13T17:35:30.464Z,5.90
2017-12-13T17:37:57.907Z,6.30
2017-12-13T17:40:25.694Z,4.97
2017-12-13T17:42:53.140Z,4.83
2017-12-13T17:45:20.612Z,9.10
2017-12-13T17:47:48.376Z,7.00
2017-12-13T17:50:15.825Z,16.50
2017-12-13T17:52:43.288Z,12.23
2017-12-13T17:55:11.098Z,9.40
2017-12-13T17:57:38.554Z,13.37
2017-12-13T18:00:06.017Z,11.50
2017-12-13T18:02:33.761Z,8.30
2017-12-13T18:05:01.232Z,12.20
2017-12-13T18:07:28.682Z,8.67
2017-12-13T18:09:56.317Z,7.43
2017-12-13T18:12:23.766Z,22.80
2017-12-13T18:14:51.226Z,10.60
2017-12-13T18:17:19.198Z,9.20
2017-12-13T18:19:46.651Z,8.23
2017-12-13T18:22:14.105Z,6.80
2017-12-13T18:24:41.806Z,5.80
2017-12-13T18:27:09.261Z,5.57
2017-12-13T18:29:37.109Z,5.40
2017-12-13T18:32:05.157Z,5.03
2017-12-13T18:34:32.589Z,5.47
2017-12-13T18:37:00.044Z,6.37
2017-12-13T18:39:27.809Z,5.90
2017-12-13T18:41:55.260Z,13.50
2017-12-13T18:44:22.704Z,7.57
2017-12-13T18:46:50.486Z,5.33
2017-12-13T18:49:17.935Z,6.90
2017-12-13T18:51:45.381Z,5.30
2017-12-13T18:54:13.176Z,5.13
2017-12-13T18:56:40.629Z,4.80
2017-12-13T18:59:08.086Z,5.37
2017-12-13T19:01:35.861Z,4.90
2017-12-13T19:04:03.306Z,5.07
2017-12-13T19:06:30.762Z,4.80
2017-12-13T19:08:58.545Z,31.60
2017-12-13T19:11:25.991Z,8.83
2017-12-13T19:13:53.489Z,9.10
2017-12-13T19:16:21.250Z,7.43
2017-12-13T19:18:48.705Z,6.80
2017-12-13T19:21:16.154Z,6.07
2017-12-13T19:23:43.958Z,5.40
2017-12-13T19:26:11.415Z,5.87
2017-12-13T19:28:38.890Z,5.80
2017-12-13T19:31:07.556Z,7.37
2017-12-13T19:33:35.005Z,6.30
2017-12-13T19:36:02.462Z,5.43
2017-12-13T19:38:30.230Z,6.53
2017-12-13T19:40:57.674Z,6.67
2017-12-13T19:43:25.139Z,5.40
2017-12-13T19:45:52.914Z,5.30
2017-12-13T19:48:20.361Z,5.30
2017-12-13T19:50:47.818Z,4.53
2017-12-13T19:53:15.592Z,4.90
2017-12-13T19:55:43.038Z,12.00
2017-12-13T19:58:10.557Z,7.63
2017-12-13T20:00:38.599Z,9.23
2017-12-13T20:03:06.057Z,9.37
2017-12-13T20:05:33.507Z,9.70
2017-12-13T20:08:01.279Z,8.73
2017-12-13T20:10:28.735Z,7.17
2017-12-13T20:12:56.225Z,6.90
2017-12-13T20:15:23.977Z,6.50
2017-12-13T20:17:51.435Z,5.53
2017-12-13T20:20:18.885Z,4.60
2017-12-13T20:22:46.658Z,4.77
2017-12-13T20:25:14.117Z,5.50
2017-12-13T20:27:41.576Z,5.60
2017-12-13T20:30:09.349Z,8.80
2017-12-13T20:32:36.869Z,6.77
2017-12-13T20:35:05.233Z,7.07
2017-12-13T20:37:32.967Z,5.30
2017-12-13T20:40:00.414Z,4.10
2017-12-13T20:42:27.863Z,4.40
2017-12-13T20:44:55.638Z,4.67
2017-12-13T20:47:23.078Z,4.40
2017-12-13T20:49:50.669Z,28.67
2017-12-13T20:52:18.637Z,7.87
2017-12-13T20:54:46.115Z,6.83
2017-12-13T20:57:13.566Z,4.80
2017-12-13T20:59:41.647Z,4.50
2017-12-13T21:02:09.132Z,4.30
2017-12-13T21:04:36.588Z,5.43
2017-12-13T21:07:04.369Z,6.97
2017-12-13T21:09:31.816Z,5.17
2017-12-13T21:11:59.253Z,5.83
2017-12-13T21:14:27.346Z,5.80
2017-12-13T21:16:54.794Z,6.00
2017-12-13T21:19:22.242Z,18.03
2017-12-13T21:21:49.986Z,5.20
2017-12-13T21:24:17.426Z,6.30
2017-12-13T21:26:44.865Z,7.67
2017-12-13T21:29:12.670Z,4.93
2017-12-13T21:31:40.122Z,3.97
2017-12-13T21:34:08.294Z,7.90
2017-12-13T21:36:36.006Z,4.43
2017-12-13T21:39:03.441Z,4.10
2017-12-13T21:41:30.894Z,5.13
2017-12-13T21:43:58.966Z,7.23
2017-12-13T21:46:26.412Z,8.17
2017-12-13T21:48:53.859Z,6.53
2017-12-13T21:51:21.657Z,4.77
2017-12-13T21:53:49.101Z,4.40
2017-12-13T21:56:17.753Z,4.80
2017-12-13T21:58:45.445Z,6.57
2017-12-13T22:01:12.887Z,5.40
2017-12-13T22:03:40.345Z,5.60
2017-12-13T22:06:08.252Z,4.77
2017-12-13T22:08:35.697Z,6.10
2017-12-13T22:11:03.152Z,10.00
2017-12-13T22:13:30.942Z,6.47
2017-12-13T22:15:58.381Z,5.47
2017-12-13T22:18:25.834Z,7.93
2017-12-13T22:20:53.637Z,5.73
2017-12-13T22:23:21.082Z,6.17
2017-12-13T22:25:48.524Z,4.90
2017-12-13T22:28:16.162Z,5.33
2017-12-13T22:30:43.608Z,5.50
2017-12-13T22:33:11.052Z,4.80
2017-12-13T22:35:41.158Z,6.53
2017-12-13T22:38:08.628Z,4.70
2017-12-13T22:40:36.072Z,5.17
2017-12-13T22:43:03.856Z,5.27
2017-12-13T22:45:31.314Z,5.40
2017-12-13T22:47:58.757Z,4.97
2017-12-13T22:50:26.545Z,4.90
2017-12-13T22:52:54.001Z,4.73
2017-12-13T22:55:21.448Z,5.60
2017-12-13T22:57:49.536Z,6.07
2017-12-13T23:00:16.985Z,6.07
2017-12-13T23:02:44.433Z,5.67
2017-12-13T23:05:12.220Z,5.97
2017-12-13T23:07:39.668Z,5.53
2017-12-13T23:10:07.120Z,4.70
2017-12-13T23:12:34.898Z,4.93
2017-12-13T23:15:02.338Z,4.23
2017-12-13T23:17:29.794Z,5.13
2017-12-13T23:19:57.581Z,5.50
2017-12-13T23:22:25.021Z,5.67
2017-12-13T23:24:52.461Z,5.30
2017-12-13T23:27:20.285Z,5.80
2017-12-13T23:29:47.734Z,5.17
2017-12-13T23:32:15.182Z,5.77
2017-12-13T23:34:43.279Z,4.80
2017-12-13T23:37:11.561Z,4.13
2017-12-13T23:39:39.005Z,4.33
2017-12-13T23:42:06.619Z,5.33
2017-12-13T23:44:34.055Z,4.47
2017-12-13T23:47:01.780Z,5.27
2017-12-13T23:49:29.775Z,5.03
2017-12-13T23:51:57.208Z,4.70
2017-12-13T23:54:24.662Z,5.33
2017-12-13T23:56:52.564Z,5.80
2017-12-13T23:59:20.001Z,4.57
